Share

Fukui, Japan

Komatsu (RJNK) Elev 30 ft | 36.39 °N, 136.41 °E | Change Station

Current weather conditions updated 20 minutes ago

Light Rain
Light Rain Mist
54 °F
Feels Like 54 °F
N
10
Wind Variable Wind from North
Sunrise 5:15 AM
Sunset 6:33 PM
Moon Waning Gibbous

Tomorrow is forecast to be Cooler than today.

Pressure 29.89 in
Visibility 2.5 miles
Clouds Few 100 ft
Mostly Cloudy 200 ft
Mostly Cloudy 300 ft
Dew Point 54 °F
Humidity 100%
Rainfall 0.00 in
Snow Depth Not available.
UV 0 out of 16
Pollen Not available.
Air Quality Not available.
Flu Activity Not available.
METAR RJNK 211000Z 01009KT 4000 -RA BR FEW001 BKN002 BKN003 12/12 Q1012

More Conditions Fewer Conditions

Pressure 29.89 in
Visibility 2.5 miles
Clouds Few 100 ft
Mostly Cloudy 200 ft
Mostly Cloudy 300 ft
Dew Point 54 °F
Humidity 100%
Rainfall 0.00 in
Snow Depth Not available.
UV 0 out of 16
Pollen Not available.
Air Quality Not available.
Flu Activity Not available.
METAR RJNK 211000Z 01009KT 4000 -RA BR FEW001 BKN002 BKN003 12/12 Q1012

More Conditions Fewer Conditions

10-Day Weather Forecast

Almanac

Astronomy

Apr. 21, 2014 Rise Set
Actual Time 5:15 AM JST 6:33 PM JST
Civil Twilight 4:48 AM JST 7:00 PM JST
Nautical Twilight 4:16 AM JST 7:32 PM JST
Astronomical Twilight 3:42 AM JST 8:06 PM JST
Moon No Moon Rise 10:02 AM JST
Length of Visible Light 14h 12m
Length of Day
13h 18m
Tomorrow will be 2m 8s longer.
Waning Gibbous, 60% of the Moon is Illuminated
Today
Waning Gibbous
Apr 22
Last Quarter
Apr 29
New
May 6
First Quarter
May 14
Full

Yesterday's Extremes

Country Highs Country Lows

Community

  • Snowy Robin
    Snowy Robin
  • Sun Pillar and Geese
    Sun Pillar and Geese
  • Showers on the Way
    Showers on the Way
  • Easter Morning Fog
    Easter Morning Fog
  • Easter Dance
    Easter Dance

WunderPhotos

Upload Photos

1,703,587 photos uploaded!

WunderBlogs® & News

Nearby

Snow Depth

Not available.

Coastal Water Temperatures

Place Temperature
No Stations Reporting

Earthquake Activity

City Distance Mag. Time & Date
No recent earthquake activity has been reported nearby.
Minimum magnitude displayed is 2.5.

Nearby Weather Stations

There are no personal weather stations in this area.

What do you think?

We're not finished. Please let us know what you like, what you don't like, and what you are still missing.